Time;durP1;ratioP1;P1;durP2;ratioP2;P2;SDS_P1;SDS_P2;PMS_P1;PMS_P2;Temp;Humidity;BMP_temperature;BMP_pressure;BME280_temperature;BME280_humidity;BME280_pressure;Samples;Min_cycle;Max_cycle;Signal;HPM_P1;HPM_P2
2023/08/01 00:00:27;;;;;;;9.10;6.43;;;16.40;99.90;;;;;;4997960;28;89027;-38
2023/08/01 00:02:52;;;;;;;6.32;5.63;;;16.30;99.90;;;;;;5010817;28;88798;-32
2023/08/01 00:05:18;;;;;;;11.23;6.80;;;16.40;99.90;;;;;;4996954;28;90962;-35
2023/08/01 00:07:44;;;;;;;8.10;6.30;;;16.30;99.90;;;;;;4998710;28;90155;-33
2023/08/01 00:10:09;;;;;;;12.10;6.47;;;16.30;99.90;;;;;;4997308;28;90622;-32
2023/08/01 00:12:35;;;;;;;9.98;7.00;;;16.30;99.90;;;;;;4997560;28;88141;-32
2023/08/01 00:15:02;;;;;;;7.75;6.88;;;16.30;99.90;;;;;;4996355;28;90277;-35
2023/08/01 00:17:27;;;;;;;8.77;6.75;;;16.30;99.90;;;;;;4978039;28;91635;-34
2023/08/01 00:19:54;;;;;;;9.20;6.75;;;16.30;99.90;;;;;;4978598;28;89064;-35
2023/08/01 00:22:20;;;;;;;14.68;8.90;;;16.30;99.90;;;;;;4978326;28;88158;-34
2023/08/01 00:24:47;;;;;;;16.27;9.40;;;16.30;99.90;;;;;;4979787;28;90502;-34
2023/08/01 00:27:13;;;;;;;11.07;8.65;;;16.30;99.90;;;;;;4998193;28;89595;-34
2023/08/01 00:29:39;;;;;;;10.35;8.18;;;16.30;99.90;;;;;;4998635;28;89667;-34
2023/08/01 00:32:05;;;;;;;12.15;9.15;;;16.20;99.90;;;;;;4980379;28;88991;-33
2023/08/01 00:34:31;;;;;;;11.10;8.00;;;16.30;99.90;;;;;;4978128;28;89300;-32
2023/08/01 00:36:57;;;;;;;9.73;8.27;;;16.20;99.90;;;;;;4959841;28;89932;-34
2023/08/01 00:39:23;;;;;;;11.82;9.27;;;16.30;99.90;;;;;;4978563;28;89611;-35
2023/08/01 00:41:48;;;;;;;16.77;9.32;;;16.20;99.90;;;;;;4995128;28;89206;-32
2023/08/01 00:44:14;;;;;;;15.05;9.65;;;16.20;99.90;;;;;;4999218;28;90233;-34
2023/08/01 00:46:40;;;;;;;15.55;9.95;;;16.20;99.90;;;;;;5012870;28;90932;-36
2023/08/01 00:49:08;;;;;;;14.70;9.25;;;16.20;99.90;;;;;;4999746;28;89532;-36
2023/08/01 00:51:34;;;;;;;11.13;9.82;;;16.20;99.90;;;;;;5016827;28;89564;-32
2023/08/01 00:54:00;;;;;;;11.82;8.90;;;16.20;99.90;;;;;;5020345;28;90436;-32
2023/08/01 00:56:26;;;;;;;14.25;9.63;;;16.20;99.90;;;;;;4999753;28;89535;-35
2023/08/01 00:58:51;;;;;;;8.38;7.38;;;16.30;99.90;;;;;;5011422;28;90130;-37
2023/08/01 01:01:17;;;;;;;14.82;10.07;;;16.20;99.90;;;;;;5009899;28;88521;-31
2023/08/01 01:03:43;;;;;;;9.30;7.70;;;16.20;99.90;;;;;;4991299;28;90408;-30
2023/08/01 01:06:15;;;;;;;14.18;9.68;;;16.30;99.90;;;;;;4981706;28;88468;-35
2023/08/01 01:08:41;;;;;;;14.93;9.27;;;16.20;99.90;;;;;;4981270;28;89349;-33
2023/08/01 01:11:07;;;;;;;13.38;9.57;;;16.20;99.90;;;;;;4981541;28;89906;-35
2023/08/01 01:13:33;;;;;;;10.55;8.95;;;16.20;99.90;;;;;;4980855;28;90695;-32
2023/08/01 01:15:59;;;;;;;13.10;9.52;;;16.20;99.90;;;;;;4990515;28;90299;-33
2023/08/01 01:18:25;;;;;;;14.25;10.07;;;16.20;99.90;;;;;;4984754;28;89846;-31
2023/08/01 01:20:51;;;;;;;16.55;9.55;;;16.20;99.90;;;;;;4980513;28;87995;-33
2023/08/01 01:23:17;;;;;;;17.60;10.43;;;16.20;99.90;;;;;;4980793;28;90100;-33
2023/08/01 01:25:43;;;;;;;15.13;9.88;;;16.20;99.90;;;;;;4980151;28;90969;-34
2023/08/01 01:28:11;;;;;;;12.13;9.32;;;16.20;99.90;;;;;;4982211;28;89500;-36
2023/08/01 01:30:37;;;;;;;13.67;10.03;;;16.20;99.90;;;;;;4997151;28;89955;-31
2023/08/01 01:33:03;;;;;;;14.50;9.40;;;16.20;99.90;;;;;;4991919;28;90042;-33
2023/08/01 01:35:29;;;;;;;10.85;8.95;;;16.20;99.90;;;;;;5003002;28;90313;-33
2023/08/01 01:37:55;;;;;;;12.82;8.50;;;16.20;99.90;;;;;;4992574;28;90224;-34
2023/08/01 01:40:21;;;;;;;10.73;8.30;;;16.20;99.90;;;;;;4994928;28;87693;-34
2023/08/01 01:42:48;;;;;;;11.95;8.90;;;16.20;99.90;;;;;;4996301;28;90076;-33
2023/08/01 01:45:14;;;;;;;13.77;8.20;;;16.10;99.90;;;;;;4995612;28;90557;-32
2023/08/01 01:47:40;;;;;;;12.07;8.40;;;16.10;99.90;;;;;;4991276;28;89525;-30
2023/08/01 01:50:06;;;;;;;17.23;9.63;;;16.10;99.90;;;;;;5005873;28;89225;-38
2023/08/01 01:52:32;;;;;;;13.27;9.77;;;16.10;99.90;;;;;;4992084;28;90317;-33
2023/08/01 01:54:58;;;;;;;13.85;8.27;;;16.10;99.90;;;;;;4995431;28;89245;-32
2023/08/01 01:57:24;;;;;;;12.23;9.48;;;16.10;99.90;;;;;;4993074;28;89339;-32
2023/08/01 01:59:50;;;;;;;9.27;8.18;;;16.10;99.90;;;;;;4996567;28;89679;-34
2023/08/01 02:02:15;;;;;;;11.52;9.25;;;16.10;99.90;;;;;;4995044;28;90700;-32
2023/08/01 02:04:41;;;;;;;11.18;9.63;;;16.10;99.90;;;;;;4998620;28;88936;-34
2023/08/01 02:07:06;;;;;;;13.63;9.43;;;16.10;99.90;;;;;;4997675;28;89538;-32
2023/08/01 02:09:32;;;;;;;11.85;10.65;;;16.00;99.90;;;;;;4999061;28;90009;-33
2023/08/01 02:11:58;;;;;;;14.43;10.18;;;16.00;99.90;;;;;;4995938;28;90675;-36
2023/08/01 02:14:23;;;;;;;11.30;9.63;;;16.00;99.90;;;;;;4997926;28;90777;-30
2023/08/01 02:16:49;;;;;;;19.67;10.13;;;16.00;99.90;;;;;;4998258;28;89074;-31
2023/08/01 02:19:15;;;;;;;15.00;10.57;;;16.00;99.90;;;;;;5007196;28;87732;-36
2023/08/01 02:21:40;;;;;;;14.30;9.30;;;16.00;99.90;;;;;;5000548;28;90214;-31
2023/08/01 02:24:06;;;;;;;15.63;10.38;;;16.00;99.90;;;;;;4997935;28;90799;-37
2023/08/01 02:26:31;;;;;;;13.60;9.23;;;16.00;99.90;;;;;;4995641;28;90467;-31
2023/08/01 02:28:57;;;;;;;13.57;8.70;;;16.00;99.90;;;;;;5000839;28;92125;-31
2023/08/01 02:31:23;;;;;;;13.98;9.50;;;16.00;99.90;;;;;;4987420;28;89109;-32
2023/08/01 02:33:48;;;;;;;12.70;9.85;;;16.00;99.90;;;;;;4980285;28;89695;-31
2023/08/01 02:36:14;;;;;;;14.38;9.98;;;15.90;99.90;;;;;;4979015;28;89337;-38
2023/08/01 02:38:40;;;;;;;15.45;8.98;;;16.00;99.90;;;;;;4984948;28;88329;-35
2023/08/01 02:41:05;;;;;;;13.82;7.80;;;15.90;99.90;;;;;;4986951;28;89816;-37
2023/08/01 02:43:31;;;;;;;9.95;8.88;;;16.00;99.90;;;;;;4985438;28;89528;-32
2023/08/01 02:45:59;;;;;;;9.60;8.43;;;15.90;99.90;;;;;;4987631;28;88453;-36
2023/08/01 02:48:25;;;;;;;14.52;8.20;;;15.90;99.90;;;;;;4985421;28;90030;-38
2023/08/01 02:50:50;;;;;;;13.75;8.80;;;15.80;99.90;;;;;;4986313;28;88969;-35
2023/08/01 02:53:16;;;;;;;12.70;8.48;;;15.80;99.90;;;;;;4986196;28;89233;-31
2023/08/01 02:55:42;;;;;;;12.30;9.85;;;15.80;99.90;;;;;;4987564;28;89475;-36
2023/08/01 02:58:07;;;;;;;16.20;9.88;;;15.80;99.90;;;;;;4992794;28;89444;-37
2023/08/01 03:00:33;;;;;;;12.25;9.48;;;15.80;99.90;;;;;;4984787;28;89168;-39
2023/08/01 03:02:58;;;;;;;15.32;9.05;;;15.80;99.90;;;;;;4981002;28;89836;-32
2023/08/01 03:05:24;;;;;;;14.05;8.98;;;15.70;99.90;;;;;;4981329;28;90053;-36
2023/08/01 03:07:50;;;;;;;12.05;9.10;;;15.70;99.90;;;;;;4999649;28;90073;-36
2023/08/01 03:10:15;;;;;;;13.95;8.40;;;15.70;99.90;;;;;;4986631;28;91123;-30
2023/08/01 03:12:41;;;;;;;17.45;8.85;;;15.70;99.90;;;;;;4980456;28;89778;-36
2023/08/01 03:15:08;;;;;;;12.45;8.60;;;15.70;99.90;;;;;;4982903;28;90864;-34
2023/08/01 03:17:34;;;;;;;12.50;9.83;;;15.70;99.90;;;;;;4988519;28;87856;-33
2023/08/01 03:20:00;;;;;;;13.00;8.95;;;15.70;99.90;;;;;;4987940;28;89303;-32
2023/08/01 03:22:25;;;;;;;11.60;9.20;;;15.70;99.90;;;;;;4987977;28;89236;-36
2023/08/01 03:24:51;;;;;;;15.13;8.13;;;15.70;99.90;;;;;;4998956;28;89938;-34
2023/08/01 03:27:17;;;;;;;11.80;8.57;;;15.70;99.90;;;;;;4979966;28;90340;-33
2023/08/01 03:29:43;;;;;;;12.13;9.18;;;15.70;99.90;;;;;;4992859;28;89865;-38
2023/08/01 03:32:08;;;;;;;13.13;8.43;;;15.70;99.90;;;;;;4995033;28;90008;-31
2023/08/01 03:34:34;;;;;;;10.65;7.90;;;15.70;99.90;;;;;;4997652;28;89310;-32
2023/08/01 03:37:00;;;;;;;15.13;8.98;;;15.70;99.90;;;;;;4995848;28;89697;-34
2023/08/01 03:39:25;;;;;;;11.00;8.45;;;15.70;99.90;;;;;;4995528;28;90253;-35
2023/08/01 03:41:51;;;;;;;12.68;8.27;;;15.70;99.90;;;;;;4996665;28;89692;-34
2023/08/01 03:44:17;;;;;;;8.95;6.60;;;15.70;99.90;;;;;;4997564;28;90932;-31
2023/08/01 03:46:43;;;;;;;9.30;7.10;;;15.70;99.90;;;;;;4997587;28;89411;-33
2023/08/01 03:49:09;;;;;;;14.48;7.25;;;15.70;99.90;;;;;;4997654;28;89451;-34
2023/08/01 03:51:35;;;;;;;12.77;7.63;;;15.70;99.90;;;;;;4996448;28;89198;-32
2023/08/01 03:54:00;;;;;;;12.40;7.45;;;15.70;99.90;;;;;;4999022;28;88997;-38
2023/08/01 03:56:27;;;;;;;10.98;7.65;;;15.60;99.90;;;;;;4996124;28;88912;-34
2023/08/01 03:58:53;;;;;;;13.60;6.50;;;15.60;99.90;;;;;;4996279;28;90165;-32
2023/08/01 04:01:18;;;;;;;14.93;7.55;;;15.60;99.90;;;;;;4995052;28;90861;-38
2023/08/01 04:03:44;;;;;;;14.07;5.90;;;15.60;99.90;;;;;;5006065;28;90746;-38
2023/08/01 04:06:10;;;;;;;10.32;6.35;;;15.50;99.90;;;;;;5014199;28;90095;-37
2023/08/01 04:08:36;;;;;;;11.05;6.45;;;15.50;99.90;;;;;;5016457;28;90437;-30
2023/08/01 04:11:02;;;;;;;7.60;5.43;;;15.50;99.90;;;;;;5014032;28;90468;-31
2023/08/01 04:13:27;;;;;;;9.95;5.95;;;15.50;99.90;;;;;;5015952;28;90150;-32
2023/08/01 04:15:53;;;;;;;7.72;5.43;;;15.50;99.90;;;;;;5014520;28;89765;-32
2023/08/01 04:18:18;;;;;;;11.05;6.75;;;15.40;99.90;;;;;;5017294;27;89166;-35
2023/08/01 04:20:44;;;;;;;7.53;4.72;;;15.50;99.90;;;;;;5017265;28;90124;-31
2023/08/01 04:23:10;;;;;;;15.02;6.43;;;15.50;99.90;;;;;;5019788;28;89534;-38
2023/08/01 04:25:35;;;;;;;5.78;5.20;;;15.40;99.90;;;;;;5017313;28;89152;-31
2023/08/01 04:28:01;;;;;;;5.60;4.43;;;15.40;99.90;;;;;;5020473;28;90573;-31
2023/08/01 04:30:26;;;;;;;8.27;4.50;;;15.40;99.90;;;;;;5016109;28;89679;-33
2023/08/01 04:32:52;;;;;;;7.22;4.35;;;15.40;99.90;;;;;;5018643;28;89661;-32
2023/08/01 04:35:18;;;;;;;6.35;3.75;;;15.30;99.90;;;;;;5016352;28;87751;-36
2023/08/01 04:37:43;;;;;;;5.38;4.15;;;15.30;99.90;;;;;;5018396;28;90691;-35
2023/08/01 04:40:09;;;;;;;3.92;2.88;;;15.20;99.90;;;;;;5015672;28;88794;-38
2023/08/01 04:42:35;;;;;;;3.35;2.92;;;15.30;99.90;;;;;;5019280;28;90381;-32
2023/08/01 04:45:00;;;;;;;5.25;3.28;;;15.20;99.90;;;;;;5015643;28;88974;-32
2023/08/01 04:47:26;;;;;;;8.68;1.92;;;15.10;99.90;;;;;;5019072;28;90381;-37
2023/08/01 04:49:51;;;;;;;2.58;1.92;;;15.00;99.90;;;;;;5013318;28;89711;-37
2023/08/01 04:52:17;;;;;;;3.40;2.08;;;15.00;99.90;;;;;;5018018;28;90375;-38
2023/08/01 04:54:43;;;;;;;2.88;1.95;;;15.10;99.90;;;;;;5016391;28;89707;-36
2023/08/01 04:57:08;;;;;;;2.42;1.88;;;15.00;99.90;;;;;;5016346;28;88854;-34
2023/08/01 04:59:34;;;;;;;3.03;2.00;;;15.00;99.90;;;;;;5015761;28;89975;-34
2023/08/01 05:02:00;;;;;;;2.97;2.13;;;15.00;99.90;;;;;;5013718;28;89425;-30
2023/08/01 05:04:25;;;;;;;2.63;2.25;;;15.00;99.90;;;;;;5001547;28;89393;-36
2023/08/01 05:06:51;;;;;;;2.90;1.98;;;15.10;99.90;;;;;;4986786;28;89998;-36
2023/08/01 05:09:16;;;;;;;3.45;2.70;;;15.00;99.90;;;;;;4981389;28;89828;-35
2023/08/01 05:11:42;;;;;;;2.05;1.73;;;15.00;99.90;;;;;;4991647;28;89506;-37
2023/08/01 05:14:08;;;;;;;1.77;1.55;;;15.00;99.90;;;;;;5008414;28;89836;-34
2023/08/01 05:16:33;;;;;;;3.78;2.25;;;15.00;99.90;;;;;;4995997;28;88799;-31
2023/08/01 05:18:59;;;;;;;1.45;1.35;;;14.90;99.90;;;;;;5001419;28;89633;-31
2023/08/01 05:21:25;;;;;;;1.92;1.73;;;15.00;99.90;;;;;;4986405;28;89507;-36
2023/08/01 05:23:50;;;;;;;1.55;1.45;;;15.00;99.90;;;;;;4989303;28;88311;-36
2023/08/01 05:26:16;;;;;;;2.90;2.40;;;15.20;99.90;;;;;;4988438;28;90350;-33
2023/08/01 05:28:42;;;;;;;3.22;2.38;;;15.40;99.90;;;;;;4987471;28;89510;-31
2023/08/01 05:31:07;;;;;;;3.42;1.60;;;15.60;99.90;;;;;;4986952;28;89296;-34
2023/08/01 05:33:33;;;;;;;2.15;1.50;;;15.60;99.90;;;;;;4985208;28;89283;-33
2023/08/01 05:35:59;;;;;;;3.88;1.67;;;15.60;99.90;;;;;;4998507;28;90927;-37
2023/08/01 05:38:24;;;;;;;2.38;1.67;;;15.60;99.90;;;;;;5004325;28;91925;-33
2023/08/01 05:40:50;;;;;;;3.20;2.08;;;15.60;99.90;;;;;;4988628;28;90550;-33
2023/08/01 05:43:16;;;;;;;3.65;2.33;;;15.60;99.90;;;;;;4997855;28;89387;-32
2023/08/01 05:45:41;;;;;;;4.05;2.42;;;15.60;99.90;;;;;;4998685;28;90694;-32
2023/08/01 05:48:07;;;;;;;2.20;1.52;;;15.60;99.90;;;;;;4997269;28;91701;-37
2023/08/01 05:50:32;;;;;;;5.97;2.03;;;15.60;99.90;;;;;;5008989;28;89740;-32
2023/08/01 05:52:58;;;;;;;3.90;2.33;;;15.60;99.90;;;;;;5000085;28;90360;-37
2023/08/01 05:55:24;;;;;;;2.33;1.70;;;15.60;99.90;;;;;;4997976;28;90122;-38
2023/08/01 05:57:52;;;;;;;5.20;2.35;;;15.60;99.90;;;;;;5009171;28;89689;-35
2023/08/01 06:00:20;;;;;;;2.58;1.63;;;15.60;99.90;;;;;;4997133;28;89439;-34
2023/08/01 06:02:46;;;;;;;2.88;1.98;;;15.70;99.90;;;;;;4997586;28;89947;-34
2023/08/01 06:05:12;;;;;;;4.60;2.17;;;15.60;99.90;;;;;;4997121;28;89651;-34
2023/08/01 06:07:38;;;;;;;2.85;2.40;;;15.60;99.90;;;;;;4977999;28;90528;-31
2023/08/01 06:10:04;;;;;;;3.72;2.72;;;15.60;99.90;;;;;;4979013;28;89832;-33
2023/08/01 06:12:30;;;;;;;2.58;2.20;;;15.60;99.90;;;;;;4990167;28;89872;-31
2023/08/01 06:14:55;;;;;;;3.60;2.60;;;15.60;99.90;;;;;;4991338;28;90344;-35
2023/08/01 06:17:21;;;;;;;3.63;2.08;;;15.60;99.90;;;;;;4978451;28;89734;-32
2023/08/01 06:19:47;;;;;;;7.70;2.65;;;15.50;99.90;;;;;;4978466;28;90286;-32
2023/08/01 06:22:13;;;;;;;4.90;2.50;;;15.60;99.90;;;;;;4978883;28;89417;-34
2023/08/01 06:24:38;;;;;;;2.90;1.80;;;15.60;99.90;;;;;;4990772;28;91113;-36
2023/08/01 06:27:05;;;;;;;3.30;2.38;;;15.80;99.90;;;;;;4977813;28;90965;-32
2023/08/01 06:29:31;;;;;;;5.00;2.13;;;15.80;99.90;;;;;;4995777;28;90900;-34
2023/08/01 06:31:56;;;;;;;2.25;1.85;;;15.90;99.90;;;;;;4998024;28;88513;-33
2023/08/01 06:34:22;;;;;;;2.65;1.85;;;15.90;99.90;;;;;;4991179;28;90183;-37
2023/08/01 06:36:48;;;;;;;3.00;2.05;;;15.90;99.90;;;;;;4993953;28;89576;-31
2023/08/01 06:39:13;;;;;;;1.60;1.50;;;16.00;99.90;;;;;;4990690;28;89100;-34
2023/08/01 06:41:39;;;;;;;3.35;2.83;;;16.20;99.90;;;;;;4994495;28;89320;-34
2023/08/01 06:44:05;;;;;;;1.85;1.50;;;16.60;99.90;;;;;;4978816;28;90309;-35
2023/08/01 06:46:30;;;;;;;2.95;2.47;;;16.80;99.90;;;;;;4992243;28;89489;-35
2023/08/01 06:48:56;;;;;;;2.30;2.10;;;16.80;99.90;;;;;;4990350;28;89076;-34
2023/08/01 06:51:22;;;;;;;2.25;1.70;;;16.70;99.90;;;;;;4989680;28;89879;-32
2023/08/01 06:53:47;;;;;;;1.90;1.60;;;16.50;99.90;;;;;;4997526;28;90353;-33
2023/08/01 06:56:13;;;;;;;2.08;1.88;;;16.30;99.90;;;;;;4995591;28;88963;-32
2023/08/01 06:58:39;;;;;;;3.60;1.63;;;16.50;99.90;;;;;;4990255;28;90158;-31
2023/08/01 07:01:04;;;;;;;1.75;1.50;;;16.70;99.90;;;;;;4997668;28;89735;-34
2023/08/01 07:03:30;;;;;;;2.42;2.22;;;16.80;99.90;;;;;;5003651;28;90081;-38
2023/08/01 07:05:56;;;;;;;2.30;2.10;;;16.70;99.90;;;;;;4977601;28;89521;-36
2023/08/01 07:08:21;;;;;;;4.32;1.80;;;16.70;99.90;;;;;;5003160;28;89819;-37
2023/08/01 07:10:47;;;;;;;2.65;2.10;;;16.80;99.90;;;;;;4977673;28;88394;-35
2023/08/01 07:13:13;;;;;;;3.08;2.28;;;16.80;99.90;;;;;;4976228;28;89733;-34
2023/08/01 07:15:39;;;;;;;2.97;2.22;;;17.00;99.90;;;;;;4977672;28;90902;-34
2023/08/01 07:18:04;;;;;;;4.25;2.58;;;17.40;99.90;;;;;;4976200;28;91640;-34
2023/08/01 07:20:30;;;;;;;5.65;2.35;;;17.40;99.90;;;;;;4977310;28;89025;-36
2023/08/01 07:22:56;;;;;;;2.90;2.10;;;17.50;99.90;;;;;;4977958;28;90112;-34
2023/08/01 07:25:22;;;;;;;3.35;2.22;;;17.60;99.90;;;;;;4976145;28;89717;-33
2023/08/01 07:27:48;;;;;;;3.58;1.95;;;17.60;99.90;;;;;;4977149;28;89823;-34
2023/08/01 07:30:13;;;;;;;2.30;2.08;;;17.60;99.90;;;;;;4991713;28;89617;-35
2023/08/01 07:32:39;;;;;;;3.33;2.28;;;17.50;99.90;;;;;;4987284;28;90125;-36
2023/08/01 07:35:06;;;;;;;3.55;1.95;;;17.60;99.90;;;;;;4976777;28;90862;-33
2023/08/01 07:37:33;;;;;;;3.33;2.05;;;17.70;99.90;;;;;;4977446;28;90036;-31
2023/08/01 07:39:59;;;;;;;2.88;1.70;;;17.80;99.90;;;;;;4993436;28;90717;-35
2023/08/01 07:42:24;;;;;;;4.68;2.15;;;17.70;99.90;;;;;;4995740;28;90112;-36
2023/08/01 07:44:50;;;;;;;4.65;2.08;;;17.70;99.90;;;;;;4995084;28;89480;-35
2023/08/01 07:47:15;;;;;;;9.65;2.03;;;17.80;99.90;;;;;;4995247;28;89627;-35
2023/08/01 07:49:41;;;;;;;4.30;2.22;;;17.70;99.90;;;;;;4995136;28;88056;-35
2023/08/01 07:52:07;;;;;;;3.70;1.75;;;17.60;99.90;;;;;;4996302;28;91110;-32
2023/08/01 07:54:33;;;;;;;3.25;1.90;;;17.60;99.90;;;;;;4998810;28;89212;-34
2023/08/01 07:56:58;;;;;;;5.28;2.50;;;17.60;99.90;;;;;;4999131;28;89584;-36
2023/08/01 07:59:24;;;;;;;3.90;2.55;;;17.40;99.90;;;;;;4999510;28;89692;-34
2023/08/01 08:01:50;;;;;;;5.85;2.00;;;17.10;99.90;;;;;;4997934;28;90298;-31
2023/08/01 08:04:15;;;;;;;2.30;2.10;;;17.20;99.90;;;;;;5013846;28;90702;-32
2023/08/01 08:06:41;;;;;;;2.80;1.58;;;17.20;99.90;;;;;;5007204;28;90498;-34
2023/08/01 08:09:07;;;;;;;3.05;1.92;;;16.90;99.90;;;;;;4999603;28;89692;-38
2023/08/01 08:14:27;;;;;;;4.55;2.35;;;16.90;99.90;;;;;;4956958;28;90115;-35
2023/08/01 08:16:53;;;;;;;3.38;2.35;;;16.80;99.90;;;;;;4959824;28;89755;-37
2023/08/01 08:19:18;;;;;;;3.85;1.90;;;16.80;99.90;;;;;;4959041;28;88329;-32
2023/08/01 08:21:44;;;;;;;4.97;2.60;;;16.80;99.90;;;;;;4959185;28;90235;-36
2023/08/01 08:24:10;;;;;;;8.65;2.85;;;16.70;99.90;;;;;;4958533;28;90149;-36
2023/08/01 08:26:39;;;;;;;4.65;2.55;;;16.60;99.90;;;;;;4958728;28;89100;-33
2023/08/01 08:29:04;;;;;;;4.13;2.25;;;16.60;99.90;;;;;;4959257;28;90114;-32
2023/08/01 08:31:31;;;;;;;6.43;2.92;;;16.60;99.90;;;;;;4959254;28;89750;-36
2023/08/01 08:33:56;;;;;;;5.53;2.05;;;16.50;99.90;;;;;;4958619;28;89863;-33
2023/08/01 08:36:22;;;;;;;7.22;2.80;;;16.60;99.90;;;;;;4959300;28;89353;-36
2023/08/01 08:38:47;;;;;;;4.03;3.22;;;16.50;99.90;;;;;;4958788;28;89289;-36
2023/08/01 08:41:38;;;;;;;3.33;2.10;;;16.50;99.90;;;;;;4941755;28;90665;-35
2023/08/01 08:44:07;;;;;;;7.03;2.30;;;16.50;99.90;;;;;;4959232;28;90210;-32
2023/08/01 08:46:40;;;;;;;5.03;2.88;;;16.40;99.90;;;;;;4957356;28;89306;-32
2023/08/01 08:49:06;;;;;;;6.07;2.55;;;16.40;99.90;;;;;;4959359;28;89995;-32
2023/08/01 08:51:32;;;;;;;3.17;2.47;;;16.30;99.90;;;;;;4958770;28;90836;-35
2023/08/01 08:53:59;;;;;;;2.95;2.20;;;16.30;99.90;;;;;;4959682;28;89896;-35
2023/08/01 08:56:25;;;;;;;5.72;2.38;;;16.30;99.90;;;;;;4958621;28;91590;-34
2023/08/01 08:58:51;;;;;;;7.65;2.70;;;16.30;99.90;;;;;;4959017;28;88723;-34
2023/08/01 09:01:18;;;;;;;3.50;2.90;;;16.30;99.90;;;;;;4959091;28;90408;-33
2023/08/01 09:03:44;;;;;;;3.23;2.40;;;16.30;99.90;;;;;;4958900;28;89938;-33
2023/08/01 09:06:24;;;;;;;4.65;3.03;;;16.30;99.90;;;;;;4959280;28;89222;-30
2023/08/01 09:09:02;;;;;;;2.85;2.63;;;16.20;99.90;;;;;;4958270;28;88373;-36
2023/08/01 09:11:27;;;;;;;5.57;2.97;;;16.30;99.90;;;;;;4958864;28;90365;-34
2023/08/01 09:13:53;;;;;;;5.10;2.97;;;16.40;99.90;;;;;;4958228;28;91938;-32
2023/08/01 09:16:19;;;;;;;4.40;2.90;;;16.40;99.90;;;;;;4958203;28;89103;-34
2023/08/01 09:18:52;;;;;;;6.13;3.80;;;16.40;99.90;;;;;;4939884;28;90169;-36
2023/08/01 09:21:19;;;;;;;4.45;3.38;;;16.40;99.90;;;;;;4957524;28;90116;-35
2023/08/01 09:23:45;;;;;;;6.30;3.40;;;16.40;99.90;;;;;;4959229;28;89639;-33
2023/08/01 09:26:20;;;;;;;6.50;3.30;;;16.30;99.90;;;;;;4957627;28;89008;-32
2023/08/01 09:28:56;;;;;;;5.90;3.33;;;16.40;99.90;;;;;;4958714;28;89881;-32
2023/08/01 09:31:33;;;;;;;3.90;3.13;;;16.50;99.90;;;;;;4958988;28;89633;-34
2023/08/01 09:34:00;;;;;;;5.15;3.08;;;16.60;99.90;;;;;;4946488;28;89761;-33
2023/08/01 09:36:26;;;;;;;4.30;3.15;;;16.80;99.90;;;;;;4958241;28;90496;-34
2023/08/01 09:38:51;;;;;;;5.70;3.75;;;16.90;99.90;;;;;;4958634;28;89425;-34
2023/08/01 09:41:20;;;;;;;7.60;4.20;;;16.80;99.90;;;;;;4958075;28;90114;-33
2023/08/01 09:43:47;;;;;;;6.55;3.17;;;16.70;99.90;;;;;;4958297;28;90759;-36
2023/08/01 09:46:13;;;;;;;6.97;3.53;;;16.60;99.90;;;;;;4956611;28;89991;-33
2023/08/01 09:48:39;;;;;;;4.88;2.58;;;16.60;99.90;;;;;;4957988;28;89763;-34
2023/08/01 09:51:05;;;;;;;5.40;2.55;;;16.50;99.90;;;;;;4955073;28;90140;-36
2023/08/01 09:53:32;;;;;;;4.15;2.85;;;16.50;99.90;;;;;;4954939;28;89303;-31
2023/08/01 09:56:01;;;;;;;2.53;2.33;;;16.40;99.90;;;;;;4951174;28;89944;-36
2023/08/01 09:58:36;;;;;;;4.20;2.50;;;16.30;99.90;;;;;;4955845;28;89876;-36
2023/08/01 10:01:02;;;;;;;4.78;2.42;;;16.20;99.90;;;;;;4955009;28;90382;-36
2023/08/01 10:03:28;;;;;;;2.92;2.20;;;16.30;99.90;;;;;;4944469;28;89292;-31
2023/08/01 10:05:56;;;;;;;3.50;3.03;;;16.50;99.90;;;;;;4955701;28;90224;-36
2023/08/01 10:08:22;;;;;;;3.70;2.83;;;16.60;99.90;;;;;;4944616;28;89312;-35
2023/08/01 10:10:49;;;;;;;3.17;2.80;;;16.80;99.90;;;;;;4939107;28;89707;-34
2023/08/01 10:13:15;;;;;;;3.15;2.85;;;16.90;99.90;;;;;;4937749;28;90802;-35
2023/08/01 10:15:41;;;;;;;3.60;2.78;;;17.10;99.90;;;;;;4945447;28;88925;-33
2023/08/01 10:18:09;;;;;;;9.40;3.17;;;17.10;99.90;;;;;;4957183;28;90108;-35
2023/08/01 10:20:37;;;;;;;3.15;2.50;;;17.30;99.90;;;;;;4957224;28;90169;-36
2023/08/01 10:23:03;;;;;;;;;;;17.30;99.90;;;;;;4957376;28;89674;-33
2023/08/01 10:25:30;;;;;;;6.35;3.20;;;17.40;99.90;;;;;;4959213;28;89328;-35
2023/08/01 10:28:03;;;;;;;6.30;2.72;;;17.40;99.90;;;;;;4955835;28;89314;-36
2023/08/01 10:30:29;;;;;;;3.50;3.05;;;17.50;99.90;;;;;;4955327;28;90409;-37
2023/08/01 10:32:57;;;;;;;4.43;2.78;;;17.70;99.90;;;;;;4957445;28;90928;-35
2023/08/01 10:35:36;;;;;;;4.87;2.87;;;17.80;99.90;;;;;;4948387;28;90344;-33
2023/08/01 10:38:10;;;;;;;9.38;2.83;;;17.90;99.90;;;;;;4949846;28;88956;-37
2023/08/01 10:40:41;;;;;;;4.55;2.85;;;17.80;99.90;;;;;;4946753;28;90927;-38
2023/08/01 10:43:22;;;;;;;5.75;3.05;;;17.70;99.90;;;;;;4944573;28;89576;-35
2023/08/01 10:45:48;;;;;;;3.05;2.22;;;17.70;99.90;;;;;;4942816;28;90031;-35
2023/08/01 10:48:14;;;;;;;5.57;2.95;;;17.70;99.90;;;;;;4945585;28;89804;-38
2023/08/01 10:50:40;;;;;;;4.68;2.40;;;17.40;99.90;;;;;;4954578;28;90205;-36
2023/08/01 10:53:08;;;;;;;2.85;1.95;;;17.30;99.90;;;;;;4954248;28;89576;-36
2023/08/01 10:55:41;;;;;;;4.13;2.13;;;17.20;99.90;;;;;;4953497;28;88912;-32
2023/08/01 10:58:08;;;;;;;3.30;2.65;;;17.30;99.90;;;;;;4957124;28;90241;-38
2023/08/01 11:00:33;;;;;;;2.83;2.55;;;17.40;99.90;;;;;;4952931;28;90298;-38
2023/08/01 11:02:59;;;;;;;4.43;2.63;;;17.40;99.90;;;;;;4957518;28;89572;-33
2023/08/01 11:05:26;;;;;;;2.70;2.50;;;17.30;99.90;;;;;;4952582;28;89292;-30
2023/08/01 11:07:56;;;;;;;4.60;2.63;;;17.40;99.90;;;;;;4953863;28;89546;-38
2023/08/01 11:10:23;;;;;;;4.25;2.45;;;17.30;99.90;;;;;;4953596;28;90981;-35
2023/08/01 11:12:49;;;;;;;7.07;2.55;;;17.10;99.90;;;;;;4953024;28;90820;-36
2023/08/01 11:15:15;;;;;;;3.05;2.47;;;17.10;99.90;;;;;;4950048;28;88590;-34
2023/08/01 11:17:52;;;;;;;5.57;3.13;;;17.10;99.90;;;;;;4956582;28;88430;-39
2023/08/01 11:20:21;;;;;;;6.22;3.25;;;17.20;99.90;;;;;;4953542;28;90213;-35
2023/08/01 11:22:54;;;;;;;3.28;3.03;;;17.30;99.90;;;;;;4952872;28;90871;-33
2023/08/01 11:25:36;;;;;;;5.28;3.35;;;17.30;99.90;;;;;;4943811;28;90400;-32
2023/08/01 11:28:14;;;;;;;3.92;2.65;;;17.30;99.90;;;;;;4951855;28;88038;-35
2023/08/01 11:30:40;;;;;;;;;;;17.30;99.90;;;;;;4951214;28;90099;-31
2023/08/01 11:33:23;;;;;;;5.80;3.00;;;17.60;99.90;;;;;;4944090;28;89583;-35
2023/08/01 11:35:59;;;;;;;12.35;4.03;;;17.80;99.90;;;;;;4945870;28;89331;-33
2023/08/01 11:38:30;;;;;;;3.50;2.78;;;18.00;99.90;;;;;;4956598;28;89036;-35
2023/08/01 11:40:59;;;;;;;4.20;2.95;;;18.10;99.90;;;;;;4956647;28;89967;-36
2023/08/01 11:43:25;;;;;;;7.40;3.47;;;18.30;99.90;;;;;;4956549;28;89640;-38
2023/08/01 11:45:58;;;;;;;8.57;3.67;;;18.40;99.90;;;;;;4938052;28;89544;-33
2023/08/01 11:48:24;;;;;;;4.25;3.00;;;18.10;99.90;;;;;;4953856;28;90714;-38
2023/08/01 11:51:00;;;;;;;8.00;2.72;;;18.00;99.90;;;;;;4939548;28;89909;-37
2023/08/01 11:53:26;;;;;;;2.97;1.80;;;17.40;99.90;;;;;;4939264;28;89207;-35
2023/08/01 11:55:52;;;;;;;6.18;2.65;;;17.20;99.90;;;;;;4950838;28;89229;-35
2023/08/01 11:58:37;;;;;;;2.38;2.17;;;17.20;99.90;;;;;;4955741;28;88494;-36
2023/08/01 12:01:13;;;;;;;4.57;2.30;;;17.20;99.90;;;;;;4955250;28;89902;-32
2023/08/01 12:03:45;;;;;;;3.72;2.97;;;17.10;99.90;;;;;;4945822;28;90855;-36
2023/08/01 12:06:13;;;;;;;5.55;3.58;;;16.90;99.90;;;;;;4949824;28;89317;-35
2023/08/01 12:08:39;;;;;;;3.55;2.70;;;17.00;99.90;;;;;;4951636;28;89002;-34
2023/08/01 12:11:05;;;;;;;4.35;2.63;;;17.00;99.90;;;;;;4951428;28;90187;-33
2023/08/01 12:13:31;;;;;;;6.32;3.42;;;17.00;99.90;;;;;;4950311;28;90477;-33
2023/08/01 12:15:57;;;;;;;7.45;2.60;;;17.20;99.90;;;;;;4950976;28;90316;-32
2023/08/01 12:18:28;;;;;;;4.57;2.60;;;17.30;99.90;;;;;;4945415;28;88439;-34
2023/08/01 12:20:54;;;;;;;4.47;3.03;;;17.40;99.90;;;;;;4937672;28;93052;-33
2023/08/01 12:23:21;;;;;;;4.10;2.72;;;17.50;99.90;;;;;;4940656;28;89979;-34
2023/08/01 12:25:47;;;;;;;2.03;1.90;;;17.30;99.90;;;;;;4953641;28;89421;-33
2023/08/01 12:28:14;;;;;;;4.68;1.77;;;17.20;99.90;;;;;;4941320;28;88606;-34
2023/08/01 12:30:44;;;;;;;4.65;2.33;;;17.20;99.90;;;;;;4955497;28;90673;-31
2023/08/01 12:33:09;;;;;;;4.72;2.10;;;17.10;99.90;;;;;;4942046;28;89925;-35
2023/08/01 12:35:40;;;;;;;2.80;1.73;;;17.20;99.90;;;;;;4939683;28;89694;-33
2023/08/01 12:38:06;;;;;;;4.03;2.58;;;17.20;99.90;;;;;;4951369;28;90330;-33
2023/08/01 12:40:32;;;;;;;4.30;2.95;;;17.20;99.90;;;;;;4941658;28;89892;-34
2023/08/01 12:42:58;;;;;;;5.90;2.78;;;17.30;99.90;;;;;;4944934;28;91689;-31